sensor_id;sensor_type;location;lat;lon;timestamp;temperature;humidity
37678;DHT22;23517;50.390;8.616;2023-10-09T00:01:44;11.50;44.30
37678;DHT22;23517;50.390;8.616;2023-10-09T00:04:11;11.50;1.00
37678;DHT22;23517;50.390;8.616;2023-10-09T00:06:40;11.60;1.00
37678;DHT22;23517;50.390;8.616;2023-10-09T00:09:09;11.60;1.00
37678;DHT22;23517;50.390;8.616;2023-10-09T00:11:49;11.50;1.00
37678;DHT22;23517;50.390;8.616;2023-10-09T00:14:27;11.40;1.00
37678;DHT22;23517;50.390;8.616;2023-10-09T00:16:57;11.40;15.40
37678;DHT22;23517;50.390;8.616;2023-10-09T00:19:48;11.40;42.90
37678;DHT22;23517;50.390;8.616;2023-10-09T00:22:18;11.40;50.00
37678;DHT22;23517;50.390;8.616;2023-10-09T00:24:58;11.40;16.70
37678;DHT22;23517;50.390;8.616;2023-10-09T00:27:39;11.40;69.50
37678;DHT22;23517;50.390;8.616;2023-10-09T00:30:14;11.40;73.60
37678;DHT22;23517;50.390;8.616;2023-10-09T00:32:46;11.40;75.10
37678;DHT22;23517;50.390;8.616;2023-10-09T00:35:28;11.40;62.00
37678;DHT22;23517;50.390;8.616;2023-10-09T00:38:03;11.40;90.80
37678;DHT22;23517;50.390;8.616;2023-10-09T00:40:48;11.40;66.30
37678;DHT22;23517;50.390;8.616;2023-10-09T00:43:23;11.40;53.20
37678;DHT22;23517;50.390;8.616;2023-10-09T00:45:58;11.40;75.70
37678;DHT22;23517;50.390;8.616;2023-10-09T00:48:36;11.40;99.90
37678;DHT22;23517;50.390;8.616;2023-10-09T00:51:09;11.40;99.90
37678;DHT22;23517;50.390;8.616;2023-10-09T00:53:45;11.50;99.90
37678;DHT22;23517;50.390;8.616;2023-10-09T00:56:19;11.50;99.90
37678;DHT22;23517;50.390;8.616;2023-10-09T00:58:57;11.60;99.90
37678;DHT22;23517;50.390;8.616;2023-10-09T01:01:36;11.60;99.90
37678;DHT22;23517;50.390;8.616;2023-10-09T01:04:07;11.60;99.90
37678;DHT22;23517;50.390;8.616;2023-10-09T01:06:43;11.60;58.60
37678;DHT22;23517;50.390;8.616;2023-10-09T01:09:12;11.50;84.20
37678;DHT22;23517;50.390;8.616;2023-10-09T01:11:41;11.40;99.90
37678;DHT22;23517;50.390;8.616;2023-10-09T01:14:16;11.40;90.10
37678;DHT22;23517;50.390;8.616;2023-10-09T01:16:43;11.30;99.90
37678;DHT22;23517;50.390;8.616;2023-10-09T01:19:10;11.30;60.00
37678;DHT22;23517;50.390;8.616;2023-10-09T01:21:47;11.20;26.80
37678;DHT22;23517;50.390;8.616;2023-10-09T01:24:14;11.20;27.40
37678;DHT22;23517;50.390;8.616;2023-10-09T01:26:43;11.10;10.60
37678;DHT22;23517;50.390;8.616;2023-10-09T01:29:20;11.00;37.80
37678;DHT22;23517;50.390;8.616;2023-10-09T01:31:50;10.90;99.90
37678;DHT22;23517;50.390;8.616;2023-10-09T01:34:32;10.90;99.90
37678;DHT22;23517;50.390;8.616;2023-10-09T01:37:19;10.90;93.10
37678;DHT22;23517;50.390;8.616;2023-10-09T01:39:50;10.90;74.70
37678;DHT22;23517;50.390;8.616;2023-10-09T01:42:19;10.80;99.90
37678;DHT22;23517;50.390;8.616;2023-10-09T01:45:12;10.80;89.90
37678;DHT22;23517;50.390;8.616;2023-10-09T01:47:41;10.80;99.90
37678;DHT22;23517;50.390;8.616;2023-10-09T01:50:17;10.80;99.90
37678;DHT22;23517;50.390;8.616;2023-10-09T01:52:53;10.80;99.90
37678;DHT22;23517;50.390;8.616;2023-10-09T01:55:20;10.60;90.90
37678;DHT22;23517;50.390;8.616;2023-10-09T01:58:07;10.60;9.30
37678;DHT22;23517;50.390;8.616;2023-10-09T02:00:49;10.60;1.00
37678;DHT22;23517;50.390;8.616;2023-10-09T02:03:22;10.60;1.00
37678;DHT22;23517;50.390;8.616;2023-10-09T02:05:53;10.50;1.00
37678;DHT22;23517;50.390;8.616;2023-10-09T02:08:26;10.50;1.00
37678;DHT22;23517;50.390;8.616;2023-10-09T02:10:56;10.50;1.00
37678;DHT22;23517;50.390;8.616;2023-10-09T02:13:23;10.50;1.00
37678;DHT22;23517;50.390;8.616;2023-10-09T02:15:57;10.50;1.00
37678;DHT22;23517;50.390;8.616;2023-10-09T02:18:41;10.50;1.00
37678;DHT22;23517;50.390;8.616;2023-10-09T02:21:22;10.50;1.00
37678;DHT22;23517;50.390;8.616;2023-10-09T02:24:07;10.40;1.00
37678;DHT22;23517;50.390;8.616;2023-10-09T02:26:53;10.40;1.00
37678;DHT22;23517;50.390;8.616;2023-10-09T02:29:20;10.50;1.00
37678;DHT22;23517;50.390;8.616;2023-10-09T02:31:50;10.50;1.00
37678;DHT22;23517;50.390;8.616;2023-10-09T02:34:27;10.50;1.00
37678;DHT22;23517;50.390;8.616;2023-10-09T02:36:54;10.40;1.00
37678;DHT22;23517;50.390;8.616;2023-10-09T02:39:32;10.50;1.00
37678;DHT22;23517;50.390;8.616;2023-10-09T02:42:03;10.40;1.00
37678;DHT22;23517;50.390;8.616;2023-10-09T02:44:53;10.40;1.00
37678;DHT22;23517;50.390;8.616;2023-10-09T02:47:21;10.40;17.60
37678;DHT22;23517;50.390;8.616;2023-10-09T02:49:55;10.40;65.20
37678;DHT22;23517;50.390;8.616;2023-10-09T02:52:32;10.40;61.40
37678;DHT22;23517;50.390;8.616;2023-10-09T02:55:07;10.40;44.00
37678;DHT22;23517;50.390;8.616;2023-10-09T02:57:50;10.40;8.30
37678;DHT22;23517;50.390;8.616;2023-10-09T03:00:22;10.40;1.00
37678;DHT22;23517;50.390;8.616;2023-10-09T03:02:58;10.40;1.00
37678;DHT22;23517;50.390;8.616;2023-10-09T03:05:25;10.30;1.00
37678;DHT22;23517;50.390;8.616;2023-10-09T03:07:55;10.30;1.00
37678;DHT22;23517;50.390;8.616;2023-10-09T03:10:22;10.30;1.00
37678;DHT22;23517;50.390;8.616;2023-10-09T03:12:49;10.30;20.70
37678;DHT22;23517;50.390;8.616;2023-10-09T03:15:20;10.30;23.80
37678;DHT22;23517;50.390;8.616;2023-10-09T03:17:47;10.30;22.90
37678;DHT22;23517;50.390;8.616;2023-10-09T03:20:15;10.30;26.80
37678;DHT22;23517;50.390;8.616;2023-10-09T03:22:44;10.30;1.00
37678;DHT22;23517;50.390;8.616;2023-10-09T03:25:12;10.40;1.00
37678;DHT22;23517;50.390;8.616;2023-10-09T03:27:41;10.40;42.60
37678;DHT22;23517;50.390;8.616;2023-10-09T03:30:17;10.40;66.10
37678;DHT22;23517;50.390;8.616;2023-10-09T03:32:52;10.40;82.10
37678;DHT22;23517;50.390;8.616;2023-10-09T03:35:21;10.40;99.90
37678;DHT22;23517;50.390;8.616;2023-10-09T03:37:57;10.40;99.90
37678;DHT22;23517;50.390;8.616;2023-10-09T03:40:27;10.40;99.90
37678;DHT22;23517;50.390;8.616;2023-10-09T03:42:54;10.40;99.90
37678;DHT22;23517;50.390;8.616;2023-10-09T03:45:21;10.50;99.90
37678;DHT22;23517;50.390;8.616;2023-10-09T03:47:55;10.50;99.90
37678;DHT22;23517;50.390;8.616;2023-10-09T03:50:28;10.60;99.90
37678;DHT22;23517;50.390;8.616;2023-10-09T03:53:03;10.60;99.90
37678;DHT22;23517;50.390;8.616;2023-10-09T03:55:36;10.60;99.90
37678;DHT22;23517;50.390;8.616;2023-10-09T03:58:05;10.50;89.20
37678;DHT22;23517;50.390;8.616;2023-10-09T04:00:33;10.50;57.70
37678;DHT22;23517;50.390;8.616;2023-10-09T04:03:13;10.50;99.90
37678;DHT22;23517;50.390;8.616;2023-10-09T04:05:42;10.40;99.90
37678;DHT22;23517;50.390;8.616;2023-10-09T04:08:10;10.40;99.90
37678;DHT22;23517;50.390;8.616;2023-10-09T04:10:40;10.40;99.90
37678;DHT22;23517;50.390;8.616;2023-10-09T04:13:10;10.50;99.90
37678;DHT22;23517;50.390;8.616;2023-10-09T04:15:43;10.50;99.90
37678;DHT22;23517;50.390;8.616;2023-10-09T04:18:10;10.60;99.90
37678;DHT22;23517;50.390;8.616;2023-10-09T04:20:42;10.60;99.90
37678;DHT22;23517;50.390;8.616;2023-10-09T04:23:28;10.60;99.90
37678;DHT22;23517;50.390;8.616;2023-10-09T04:26:25;10.60;99.90
37678;DHT22;23517;50.390;8.616;2023-10-09T04:28:55;10.60;99.90
37678;DHT22;23517;50.390;8.616;2023-10-09T04:31:22;10.60;99.90
37678;DHT22;23517;50.390;8.616;2023-10-09T04:33:54;10.70;99.90
37678;DHT22;23517;50.390;8.616;2023-10-09T04:36:40;10.70;99.90
37678;DHT22;23517;50.390;8.616;2023-10-09T04:39:13;10.70;99.90
37678;DHT22;23517;50.390;8.616;2023-10-09T04:41:40;10.80;99.90
37678;DHT22;23517;50.390;8.616;2023-10-09T04:44:07;10.80;99.90
37678;DHT22;23517;50.390;8.616;2023-10-09T04:46:46;10.90;99.90
37678;DHT22;23517;50.390;8.616;2023-10-09T04:49:35;10.90;99.90
37678;DHT22;23517;50.390;8.616;2023-10-09T04:52:31;10.90;99.90
37678;DHT22;23517;50.390;8.616;2023-10-09T04:54:58;10.90;99.90
37678;DHT22;23517;50.390;8.616;2023-10-09T04:57:48;10.80;99.90
37678;DHT22;23517;50.390;8.616;2023-10-09T05:00:33;10.90;99.90
37678;DHT22;23517;50.390;8.616;2023-10-09T05:03:01;10.90;99.90
37678;DHT22;23517;50.390;8.616;2023-10-09T05:05:48;10.90;99.90
37678;DHT22;23517;50.390;8.616;2023-10-09T05:08:26;10.90;99.90
37678;DHT22;23517;50.390;8.616;2023-10-09T05:11:02;11.00;99.90
37678;DHT22;23517;50.390;8.616;2023-10-09T05:18:56;11.10;99.90
37678;DHT22;23517;50.390;8.616;2023-10-09T05:21:37;11.20;99.90
37678;DHT22;23517;50.390;8.616;2023-10-09T05:24:10;11.20;99.90
37678;DHT22;23517;50.390;8.616;2023-10-09T05:26:50;11.10;99.90
37678;DHT22;23517;50.390;8.616;2023-10-09T05:29:25;11.20;99.90
37678;DHT22;23517;50.390;8.616;2023-10-09T05:31:55;11.10;99.90
37678;DHT22;23517;50.390;8.616;2023-10-09T05:34:41;11.10;99.90
37678;DHT22;23517;50.390;8.616;2023-10-09T05:37:30;11.10;99.90
37678;DHT22;23517;50.390;8.616;2023-10-09T05:40:05;11.10;99.90
37678;DHT22;23517;50.390;8.616;2023-10-09T05:42:45;11.00;99.90
37678;DHT22;23517;50.390;8.616;2023-10-09T05:45:24;11.00;99.90
37678;DHT22;23517;50.390;8.616;2023-10-09T05:48:16;11.00;99.90
37678;DHT22;23517;50.390;8.616;2023-10-09T05:51:03;11.00;99.90
37678;DHT22;23517;50.390;8.616;2023-10-09T05:53:39;11.00;99.90
37678;DHT22;23517;50.390;8.616;2023-10-09T05:56:12;11.00;99.90
37678;DHT22;23517;50.390;8.616;2023-10-09T05:58:58;11.00;99.90
37678;DHT22;23517;50.390;8.616;2023-10-09T06:01:33;11.00;99.90
37678;DHT22;23517;50.390;8.616;2023-10-09T06:04:18;11.10;99.90
37678;DHT22;23517;50.390;8.616;2023-10-09T06:06:52;11.10;99.90
37678;DHT22;23517;50.390;8.616;2023-10-09T06:09:27;11.20;99.90
37678;DHT22;23517;50.390;8.616;2023-10-09T06:12:12;11.30;99.90
37678;DHT22;23517;50.390;8.616;2023-10-09T06:14:58;11.30;99.90
37678;DHT22;23517;50.390;8.616;2023-10-09T06:17:46;11.40;99.90
37678;DHT22;23517;50.390;8.616;2023-10-09T06:20:18;11.40;99.90
37678;DHT22;23517;50.390;8.616;2023-10-09T06:23:04;11.50;99.90
37678;DHT22;23517;50.390;8.616;2023-10-09T06:25:43;11.50;99.90
37678;DHT22;23517;50.390;8.616;2023-10-09T06:28:20;11.60;99.90
37678;DHT22;23517;50.390;8.616;2023-10-09T06:31:03;11.50;99.90
37678;DHT22;23517;50.390;8.616;2023-10-09T06:33:50;11.50;99.90
37678;DHT22;23517;50.390;8.616;2023-10-09T06:36:35;11.60;99.90
37678;DHT22;23517;50.390;8.616;2023-10-09T06:39:15;11.60;99.90
37678;DHT22;23517;50.390;8.616;2023-10-09T06:42:00;11.70;99.90
37678;DHT22;23517;50.390;8.616;2023-10-09T06:44:35;11.80;99.90
37678;DHT22;23517;50.390;8.616;2023-10-09T06:47:20;12.00;99.90
37678;DHT22;23517;50.390;8.616;2023-10-09T06:49:50;12.00;99.90
37678;DHT22;23517;50.390;8.616;2023-10-09T06:52:54;12.10;99.90
37678;DHT22;23517;50.390;8.616;2023-10-09T06:55:24;12.20;99.90
37678;DHT22;23517;50.390;8.616;2023-10-09T06:58:03;12.30;99.90
37678;DHT22;23517;50.390;8.616;2023-10-09T07:00:39;12.20;99.90
37678;DHT22;23517;50.390;8.616;2023-10-09T07:03:21;12.20;99.90
37678;DHT22;23517;50.390;8.616;2023-10-09T07:06:09;12.20;99.90
37678;DHT22;23517;50.390;8.616;2023-10-09T07:08:54;12.30;99.90
37678;DHT22;23517;50.390;8.616;2023-10-09T07:11:37;12.30;99.90
37678;DHT22;23517;50.390;8.616;2023-10-09T07:14:20;12.20;99.90
37678;DHT22;23517;50.390;8.616;2023-10-09T07:19:28;12.30;99.90
37678;DHT22;23517;50.390;8.616;2023-10-09T07:22:01;12.30;99.90
37678;DHT22;23517;50.390;8.616;2023-10-09T07:24:42;12.30;99.90
37678;DHT22;23517;50.390;8.616;2023-10-09T07:27:20;12.40;99.90
37678;DHT22;23517;50.390;8.616;2023-10-09T07:30:08;12.40;99.90
37678;DHT22;23517;50.390;8.616;2023-10-09T07:35:45;12.40;99.90
37678;DHT22;23517;50.390;8.616;2023-10-09T07:38:19;12.50;99.90
37678;DHT22;23517;50.390;8.616;2023-10-09T07:40:55;12.60;99.90
37678;DHT22;23517;50.390;8.616;2023-10-09T07:43:29;12.70;99.90
37678;DHT22;23517;50.390;8.616;2023-10-09T07:46:06;12.80;99.90
37678;DHT22;23517;50.390;8.616;2023-10-09T07:48:52;12.90;99.90
37678;DHT22;23517;50.390;8.616;2023-10-09T07:51:19;13.10;1.00
37678;DHT22;23517;50.390;8.616;2023-10-09T07:53:50;13.10;1.00
37678;DHT22;23517;50.390;8.616;2023-10-09T07:56:24;13.10;1.00
37678;DHT22;23517;50.390;8.616;2023-10-09T07:58:51;13.20;1.00
37678;DHT22;23517;50.390;8.616;2023-10-09T08:01:18;13.20;1.00
37678;DHT22;23517;50.390;8.616;2023-10-09T08:04:03;13.20;1.00
37678;DHT22;23517;50.390;8.616;2023-10-09T08:06:39;13.20;1.00
37678;DHT22;23517;50.390;8.616;2023-10-09T08:09:30;13.20;1.00
37678;DHT22;23517;50.390;8.616;2023-10-09T08:12:20;13.20;1.00
37678;DHT22;23517;50.390;8.616;2023-10-09T08:15:08;13.10;76.50
37678;DHT22;23517;50.390;8.616;2023-10-09T08:20:37;13.10;99.90
37678;DHT22;23517;50.390;8.616;2023-10-09T08:23:22;13.00;99.90
37678;DHT22;23517;50.390;8.616;2023-10-09T08:26:03;13.00;99.90
37678;DHT22;23517;50.390;8.616;2023-10-09T08:28:44;13.00;99.90
37678;DHT22;23517;50.390;8.616;2023-10-09T08:31:16;13.00;99.90
37678;DHT22;23517;50.390;8.616;2023-10-09T08:34:13;13.10;99.90
37678;DHT22;23517;50.390;8.616;2023-10-09T08:36:55;13.10;99.90
37678;DHT22;23517;50.390;8.616;2023-10-09T08:39:22;13.10;99.90
37678;DHT22;23517;50.390;8.616;2023-10-09T08:41:56;13.20;99.90
37678;DHT22;23517;50.390;8.616;2023-10-09T08:44:26;13.20;99.90
37678;DHT22;23517;50.390;8.616;2023-10-09T08:46:59;13.30;99.90
37678;DHT22;23517;50.390;8.616;2023-10-09T08:49:26;13.40;99.90
37678;DHT22;23517;50.390;8.616;2023-10-09T08:51:56;13.60;99.90
37678;DHT22;23517;50.390;8.616;2023-10-09T08:54:29;13.60;99.90
37678;DHT22;23517;50.390;8.616;2023-10-09T08:56:59;13.70;99.90
37678;DHT22;23517;50.390;8.616;2023-10-09T08:59:27;13.70;99.90
37678;DHT22;23517;50.390;8.616;2023-10-09T09:01:54;13.80;99.90
37678;DHT22;23517;50.390;8.616;2023-10-09T09:04:38;13.80;99.90
37678;DHT22;23517;50.390;8.616;2023-10-09T09:07:28;13.90;99.90
37678;DHT22;23517;50.390;8.616;2023-10-09T09:09:58;13.90;99.90
37678;DHT22;23517;50.390;8.616;2023-10-09T09:12:44;14.20;99.90
37678;DHT22;23517;50.390;8.616;2023-10-09T09:15:16;14.30;1.00
37678;DHT22;23517;50.390;8.616;2023-10-09T09:18:04;14.40;1.00
37678;DHT22;23517;50.390;8.616;2023-10-09T09:20:38;14.60;1.00
37678;DHT22;23517;50.390;8.616;2023-10-09T09:25:47;14.90;1.00
37678;DHT22;23517;50.390;8.616;2023-10-09T09:28:15;14.90;1.00
37678;DHT22;23517;50.390;8.616;2023-10-09T09:30:48;15.00;1.00
37678;DHT22;23517;50.390;8.616;2023-10-09T09:33:19;15.10;1.00
37678;DHT22;23517;50.390;8.616;2023-10-09T09:35:56;15.10;1.00
37678;DHT22;23517;50.390;8.616;2023-10-09T09:38:29;15.10;1.00
37678;DHT22;23517;50.390;8.616;2023-10-09T09:41:09;15.10;1.00
37678;DHT22;23517;50.390;8.616;2023-10-09T09:43:37;15.00;1.00
37678;DHT22;23517;50.390;8.616;2023-10-09T09:46:07;15.00;1.00
37678;DHT22;23517;50.390;8.616;2023-10-09T09:48:38;15.00;24.40
37678;DHT22;23517;50.390;8.616;2023-10-09T09:51:06;15.10;33.50
37678;DHT22;23517;50.390;8.616;2023-10-09T09:53:35;15.10;21.30
37678;DHT22;23517;50.390;8.616;2023-10-09T09:56:03;15.10;11.80
37678;DHT22;23517;50.390;8.616;2023-10-09T09:58:32;15.10;43.00
37678;DHT22;23517;50.390;8.616;2023-10-09T10:01:10;15.10;1.00
37678;DHT22;23517;50.390;8.616;2023-10-09T10:03:57;15.20;99.90
37678;DHT22;23517;50.390;8.616;2023-10-09T10:06:28;15.20;99.90
37678;DHT22;23517;50.390;8.616;2023-10-09T10:08:58;15.20;99.90
37678;DHT22;23517;50.390;8.616;2023-10-09T10:14:13;15.20;99.90
37678;DHT22;23517;50.390;8.616;2023-10-09T10:22:44;15.50;1.00
37678;DHT22;23517;50.390;8.616;2023-10-09T10:30:56;16.30;99.90
37678;DHT22;23517;50.390;8.616;2023-10-09T10:33:30;16.50;1.00
37678;DHT22;23517;50.390;8.616;2023-10-09T10:36:23;16.60;82.40
37678;DHT22;23517;50.390;8.616;2023-10-09T10:41:37;16.90;1.00
37678;DHT22;23517;50.390;8.616;2023-10-09T10:44:33;17.10;1.00
37678;DHT22;23517;50.390;8.616;2023-10-09T10:47:00;17.30;99.90
37678;DHT22;23517;50.390;8.616;2023-10-09T10:49:28;17.40;1.00
37678;DHT22;23517;50.390;8.616;2023-10-09T10:52:22;17.50;1.00
37678;DHT22;23517;50.390;8.616;2023-10-09T10:55:09;17.60;1.00
37678;DHT22;23517;50.390;8.616;2023-10-09T10:57:58;17.60;99.90
37678;DHT22;23517;50.390;8.616;2023-10-09T11:03:20;17.80;99.90
37678;DHT22;23517;50.390;8.616;2023-10-09T11:06:02;17.90;50.00
37678;DHT22;23517;50.390;8.616;2023-10-09T11:08:45;18.00;1.00
37678;DHT22;23517;50.390;8.616;2023-10-09T11:11:25;18.10;1.00
37678;DHT22;23517;50.390;8.616;2023-10-09T11:14:17;18.10;1.00
37678;DHT22;23517;50.390;8.616;2023-10-09T11:16:52;18.30;1.00
37678;DHT22;23517;50.390;8.616;2023-10-09T11:19:25;18.50;1.00
37678;DHT22;23517;50.390;8.616;2023-10-09T11:21:56;18.60;1.00
37678;DHT22;23517;50.390;8.616;2023-10-09T11:24:33;18.70;1.00
37678;DHT22;23517;50.390;8.616;2023-10-09T11:27:05;18.80;1.00
37678;DHT22;23517;50.390;8.616;2023-10-09T11:29:34;18.90;1.00
37678;DHT22;23517;50.390;8.616;2023-10-09T11:32:18;19.00;1.00
37678;DHT22;23517;50.390;8.616;2023-10-09T11:34:50;19.00;1.00
37678;DHT22;23517;50.390;8.616;2023-10-09T11:37:22;19.00;1.00
37678;DHT22;23517;50.390;8.616;2023-10-09T11:39:59;19.00;1.00
37678;DHT22;23517;50.390;8.616;2023-10-09T11:42:28;19.10;1.00
37678;DHT22;23517;50.390;8.616;2023-10-09T11:45:21;19.10;1.00
37678;DHT22;23517;50.390;8.616;2023-10-09T11:47:56;19.10;1.00
37678;DHT22;23517;50.390;8.616;2023-10-09T11:50:42;19.20;1.00
37678;DHT22;23517;50.390;8.616;2023-10-09T11:53:18;19.20;1.40
37678;DHT22;23517;50.390;8.616;2023-10-09T11:55:49;19.10;99.90
37678;DHT22;23517;50.390;8.616;2023-10-09T11:58:17;19.10;99.90
37678;DHT22;23517;50.390;8.616;2023-10-09T12:00:52;19.10;99.90
37678;DHT22;23517;50.390;8.616;2023-10-09T12:03:31;19.20;99.90
37678;DHT22;23517;50.390;8.616;2023-10-09T12:06:00;19.20;99.90
37678;DHT22;23517;50.390;8.616;2023-10-09T12:08:32;19.20;99.90
37678;DHT22;23517;50.390;8.616;2023-10-09T12:11:01;19.40;99.90
37678;DHT22;23517;50.390;8.616;2023-10-09T12:13:35;19.40;99.90
37678;DHT22;23517;50.390;8.616;2023-10-09T12:16:05;19.40;99.90
37678;DHT22;23517;50.390;8.616;2023-10-09T12:18:37;19.50;99.90
37678;DHT22;23517;50.390;8.616;2023-10-09T12:21:06;19.50;99.90
37678;DHT22;23517;50.390;8.616;2023-10-09T12:23:33;19.50;99.90
37678;DHT22;23517;50.390;8.616;2023-10-09T12:26:03;19.50;99.90
37678;DHT22;23517;50.390;8.616;2023-10-09T12:28:30;19.60;99.90
37678;DHT22;23517;50.390;8.616;2023-10-09T12:30:59;19.70;99.90
37678;DHT22;23517;50.390;8.616;2023-10-09T12:33:29;19.70;99.90
37678;DHT22;23517;50.390;8.616;2023-10-09T12:35:57;19.70;99.90
37678;DHT22;23517;50.390;8.616;2023-10-09T12:38:27;19.70;99.90
37678;DHT22;23517;50.390;8.616;2023-10-09T12:41:04;19.70;1.00
37678;DHT22;23517;50.390;8.616;2023-10-09T12:43:43;19.80;99.90
37678;DHT22;23517;50.390;8.616;2023-10-09T12:46:10;19.90;99.90
37678;DHT22;23517;50.390;8.616;2023-10-09T12:48:43;19.80;99.90
37678;DHT22;23517;50.390;8.616;2023-10-09T12:51:13;19.80;99.90
37678;DHT22;23517;50.390;8.616;2023-10-09T12:53:44;19.80;99.90
37678;DHT22;23517;50.390;8.616;2023-10-09T12:56:12;19.90;99.90
37678;DHT22;23517;50.390;8.616;2023-10-09T12:58:39;19.90;99.90
37678;DHT22;23517;50.390;8.616;2023-10-09T13:01:09;19.90;99.90
37678;DHT22;23517;50.390;8.616;2023-10-09T13:03:37;19.90;99.90
37678;DHT22;23517;50.390;8.616;2023-10-09T13:06:05;19.90;1.00
37678;DHT22;23517;50.390;8.616;2023-10-09T13:08:37;19.90;99.90
37678;DHT22;23517;50.390;8.616;2023-10-09T13:11:09;19.90;99.90
37678;DHT22;23517;50.390;8.616;2023-10-09T13:13:44;19.80;99.90
37678;DHT22;23517;50.390;8.616;2023-10-09T13:16:21;19.70;99.90
37678;DHT22;23517;50.390;8.616;2023-10-09T13:18:55;19.70;99.90
37678;DHT22;23517;50.390;8.616;2023-10-09T13:21:25;19.70;99.90
37678;DHT22;23517;50.390;8.616;2023-10-09T13:23:53;19.70;99.90
37678;DHT22;23517;50.390;8.616;2023-10-09T13:26:24;19.80;99.90
37678;DHT22;23517;50.390;8.616;2023-10-09T13:29:01;19.80;99.90
37678;DHT22;23517;50.390;8.616;2023-10-09T13:31:29;19.80;99.90
37678;DHT22;23517;50.390;8.616;2023-10-09T13:34:01;19.80;99.90
37678;DHT22;23517;50.390;8.616;2023-10-09T13:36:30;19.80;99.90
37678;DHT22;23517;50.390;8.616;2023-10-09T13:39:02;19.80;99.90
37678;DHT22;23517;50.390;8.616;2023-10-09T13:41:58;19.80;99.90
37678;DHT22;23517;50.390;8.616;2023-10-09T13:44:31;19.80;99.90
37678;DHT22;23517;50.390;8.616;2023-10-09T13:47:05;19.90;99.90
37678;DHT22;23517;50.390;8.616;2023-10-09T13:49:33;19.90;99.90
37678;DHT22;23517;50.390;8.616;2023-10-09T13:52:02;19.80;99.90
37678;DHT22;23517;50.390;8.616;2023-10-09T13:54:30;19.80;99.90
37678;DHT22;23517;50.390;8.616;2023-10-09T13:57:00;19.80;99.90
37678;DHT22;23517;50.390;8.616;2023-10-09T13:59:33;19.80;99.90
37678;DHT22;23517;50.390;8.616;2023-10-09T14:02:08;19.80;99.90
37678;DHT22;23517;50.390;8.616;2023-10-09T14:04:37;19.80;99.90
37678;DHT22;23517;50.390;8.616;2023-10-09T14:07:03;19.80;99.90
37678;DHT22;23517;50.390;8.616;2023-10-09T14:09:32;19.80;99.90
37678;DHT22;23517;50.390;8.616;2023-10-09T14:12:05;19.80;99.90
37678;DHT22;23517;50.390;8.616;2023-10-09T14:14:38;19.70;99.90
37678;DHT22;23517;50.390;8.616;2023-10-09T14:17:08;19.70;99.90
37678;DHT22;23517;50.390;8.616;2023-10-09T14:19:42;19.70;99.90
37678;DHT22;23517;50.390;8.616;2023-10-09T14:22:16;19.70;99.90
37678;DHT22;23517;50.390;8.616;2023-10-09T14:24:47;19.70;99.90
37678;DHT22;23517;50.390;8.616;2023-10-09T14:27:15;19.70;99.90
37678;DHT22;23517;50.390;8.616;2023-10-09T14:29:45;19.70;99.90
37678;DHT22;23517;50.390;8.616;2023-10-09T14:32:13;19.70;99.90
37678;DHT22;23517;50.390;8.616;2023-10-09T14:34:44;19.60;99.90
37678;DHT22;23517;50.390;8.616;2023-10-09T14:37:17;19.60;99.90
37678;DHT22;23517;50.390;8.616;2023-10-09T14:39:48;19.60;99.90
37678;DHT22;23517;50.390;8.616;2023-10-09T14:42:16;19.60;99.90
37678;DHT22;23517;50.390;8.616;2023-10-09T14:44:44;19.60;99.90
37678;DHT22;23517;50.390;8.616;2023-10-09T14:47:14;19.50;99.90
37678;DHT22;23517;50.390;8.616;2023-10-09T14:49:47;19.50;99.90
37678;DHT22;23517;50.390;8.616;2023-10-09T14:52:15;19.50;99.90
37678;DHT22;23517;50.390;8.616;2023-10-09T14:54:47;19.50;99.90
37678;DHT22;23517;50.390;8.616;2023-10-09T14:57:14;19.40;99.90
37678;DHT22;23517;50.390;8.616;2023-10-09T14:59:42;19.40;99.90
37678;DHT22;23517;50.390;8.616;2023-10-09T15:02:12;19.40;99.90
37678;DHT22;23517;50.390;8.616;2023-10-09T15:04:40;19.40;99.90
37678;DHT22;23517;50.390;8.616;2023-10-09T15:07:07;19.40;99.90
37678;DHT22;23517;50.390;8.616;2023-10-09T15:09:35;19.30;99.90
37678;DHT22;23517;50.390;8.616;2023-10-09T15:12:04;19.30;99.90
37678;DHT22;23517;50.390;8.616;2023-10-09T15:14:34;19.30;99.90
37678;DHT22;23517;50.390;8.616;2023-10-09T15:17:01;19.20;99.90
37678;DHT22;23517;50.390;8.616;2023-10-09T15:19:29;19.20;99.90
37678;DHT22;23517;50.390;8.616;2023-10-09T15:21:57;19.20;99.90
37678;DHT22;23517;50.390;8.616;2023-10-09T15:24:27;19.20;99.90
37678;DHT22;23517;50.390;8.616;2023-10-09T15:26:55;19.10;99.90
37678;DHT22;23517;50.390;8.616;2023-10-09T15:29:26;19.20;99.90
37678;DHT22;23517;50.390;8.616;2023-10-09T15:32:00;19.20;99.90
37678;DHT22;23517;50.390;8.616;2023-10-09T15:34:32;19.20;99.90
37678;DHT22;23517;50.390;8.616;2023-10-09T15:37:02;19.20;99.90
37678;DHT22;23517;50.390;8.616;2023-10-09T15:39:30;19.20;99.90
37678;DHT22;23517;50.390;8.616;2023-10-09T15:41:58;19.10;99.90
37678;DHT22;23517;50.390;8.616;2023-10-09T15:44:25;19.10;99.90
37678;DHT22;23517;50.390;8.616;2023-10-09T15:46:54;19.10;99.90
37678;DHT22;23517;50.390;8.616;2023-10-09T15:49:27;19.00;99.90
37678;DHT22;23517;50.390;8.616;2023-10-09T15:51:54;19.00;99.90
37678;DHT22;23517;50.390;8.616;2023-10-09T15:54:21;18.90;99.90
37678;DHT22;23517;50.390;8.616;2023-10-09T15:56:47;18.80;99.90
37678;DHT22;23517;50.390;8.616;2023-10-09T15:59:34;18.80;99.90
37678;DHT22;23517;50.390;8.616;2023-10-09T16:02:01;18.70;99.90
37678;DHT22;23517;50.390;8.616;2023-10-09T16:04:29;18.60;99.90
37678;DHT22;23517;50.390;8.616;2023-10-09T16:07:00;18.60;99.90
37678;DHT22;23517;50.390;8.616;2023-10-09T16:09:27;18.50;99.90
37678;DHT22;23517;50.390;8.616;2023-10-09T16:11:56;18.50;99.90
37678;DHT22;23517;50.390;8.616;2023-10-09T16:14:22;18.40;99.90
37678;DHT22;23517;50.390;8.616;2023-10-09T16:16:50;18.40;99.90
37678;DHT22;23517;50.390;8.616;2023-10-09T16:19:17;18.40;99.90
37678;DHT22;23517;50.390;8.616;2023-10-09T16:21:44;18.30;99.90
37678;DHT22;23517;50.390;8.616;2023-10-09T16:24:11;18.30;99.90
37678;DHT22;23517;50.390;8.616;2023-10-09T16:26:39;18.30;99.90
37678;DHT22;23517;50.390;8.616;2023-10-09T16:29:06;18.20;99.90
37678;DHT22;23517;50.390;8.616;2023-10-09T16:31:36;18.20;99.90
37678;DHT22;23517;50.390;8.616;2023-10-09T16:34:08;18.20;99.90
37678;DHT22;23517;50.390;8.616;2023-10-09T16:36:36;18.20;99.90
37678;DHT22;23517;50.390;8.616;2023-10-09T16:39:03;18.20;99.90
37678;DHT22;23517;50.390;8.616;2023-10-09T16:41:30;18.20;99.90
37678;DHT22;23517;50.390;8.616;2023-10-09T16:44:02;18.20;99.90
37678;DHT22;23517;50.390;8.616;2023-10-09T16:46:31;18.20;99.90
37678;DHT22;23517;50.390;8.616;2023-10-09T16:48:58;18.10;99.90
37678;DHT22;23517;50.390;8.616;2023-10-09T16:51:30;18.00;99.90
37678;DHT22;23517;50.390;8.616;2023-10-09T16:53:57;18.00;99.90
37678;DHT22;23517;50.390;8.616;2023-10-09T16:56:25;18.00;99.90